Time;durP1;ratioP1;P1;durP2;ratioP2;P2;SDS_P1;SDS_P2;PMS_P1;PMS_P2;Temp;Humidity;BMP_temperature;BMP_pressure;BME280_temperature;BME280_humidity;BME280_pressure;Samples;Min_cycle;Max_cycle;Signal;HPM_P1;HPM_P2
2024/01/14 00:01:51;;;;;;;2.00;1.90;;;;;;;-0.72;96.29;100463.66;4933965;29;20035;-70
2024/01/14 00:04:17;;;;;;;2.00;1.90;;;;;;;-0.68;97.09;100466.38;4948517;28;20286;-71
2024/01/14 00:06:42;;;;;;;2.00;1.90;;;;;;;-0.70;96.15;100460.22;4954831;28;20490;-71
2024/01/14 00:09:08;;;;;;;1.90;1.80;;;;;;;-1.16;96.37;100376.66;4957915;28;20035;-70
2024/01/14 00:11:33;;;;;;;2.10;2.00;;;;;;;-0.70;96.68;100456.72;4935924;28;20433;-71
2024/01/14 00:13:58;;;;;;;2.10;2.00;;;;;;;-1.11;96.56;100384.56;4955392;28;20587;-70
2024/01/14 00:16:24;;;;;;;2.10;2.00;;;;;;;-0.75;96.47;100447.91;4932216;29;20034;-65
2024/01/14 00:18:49;;;;;;;2.20;2.10;;;;;;;-0.72;96.68;100454.09;4952941;29;20046;-65
2024/01/14 00:21:14;;;;;;;2.15;2.05;;;;;;;-0.72;96.91;100437.53;4952756;29;20034;-65
2024/01/14 00:23:40;;;;;;;2.13;2.03;;;;;;;-0.69;96.79;100438.47;4949894;29;20077;-65
2024/01/14 00:26:05;;;;;;;2.00;1.90;;;;;;;-0.64;97.24;100441.19;4935560;29;20076;-65
2024/01/14 00:28:31;;;;;;;2.05;1.95;;;;;;;-0.71;97.06;100440.16;4933437;29;20035;-66
2024/01/14 00:30:56;;;;;;;2.05;1.95;;;;;;;-1.03;96.81;100373.41;4951911;29;20023;-65
2024/01/14 00:33:21;;;;;;;2.00;1.90;;;;;;;-0.76;97.34;100426.19;4937164;29;20491;-65
2024/01/14 00:35:47;;;;;;;2.10;2.00;;;;;;;-0.99;97.66;100406.56;4932056;29;20032;-65
2024/01/14 00:38:15;;;;;;;1.90;1.80;;;;;;;-0.75;97.29;100424.41;4931623;29;20122;-65
2024/01/14 00:40:40;;;;;;;2.00;1.90;;;;;;;-0.77;97.93;100419.16;4959473;28;20066;-66
2024/01/14 00:43:05;;;;;;;2.00;1.90;;;;;;;-0.80;98.63;100419.13;4940442;29;20054;-65
2024/01/14 00:45:31;;;;;;;2.00;1.90;;;;;;;-0.77;98.42;100410.44;4950339;28;20030;-66
2024/01/14 00:47:56;;;;;;;1.98;1.88;;;;;;;-0.84;98.94;100398.16;4955971;28;20018;-65
2024/01/14 00:50:22;;;;;;;2.00;1.90;;;;;;;-0.72;97.89;100403.56;4969971;28;20450;-64
2024/01/14 00:52:47;;;;;;;2.00;1.90;;;;;;;-0.84;97.66;100385.97;4917806;29;20449;-65
2024/01/14 00:55:13;;;;;;;2.20;2.10;;;;;;;-1.00;97.50;100359.53;4930792;29;20020;-65
2024/01/14 00:57:38;;;;;;;2.08;1.98;;;;;;;-0.91;98.41;100384.09;4939717;29;20048;-65
2024/01/14 01:00:08;;;;;;;2.05;1.95;;;;;;;-1.46;98.25;100295.16;4924818;29;20039;-65
2024/01/14 01:02:34;;;;;;;2.25;2.15;;;;;;;-0.89;98.32;100377.16;4948529;29;20031;-65
2024/01/14 01:04:59;;;;;;;2.10;2.00;;;;;;;-0.91;98.92;100370.16;4930293;29;20045;-66
2024/01/14 01:07:25;;;;;;;2.10;2.00;;;;;;;-0.88;99.39;100365.88;4950846;29;20023;-65
2024/01/14 01:09:50;;;;;;;2.08;1.98;;;;;;;-0.89;99.27;100369.31;4922579;29;20031;-64
2024/01/14 01:12:16;;;;;;;2.15;2.05;;;;;;;-0.94;99.02;100357.91;4932348;29;20103;-64
2024/01/14 01:14:41;;;;;;;2.10;2.00;;;;;;;-0.93;99.10;100367.53;4932913;29;20029;-65
2024/01/14 01:17:06;;;;;;;2.05;1.95;;;;;;;-0.95;100.00;100356.16;4950558;29;20030;-65
2024/01/14 01:19:32;;;;;;;2.10;2.00;;;;;;;-1.03;99.60;100352.53;4950848;29;20031;-65
2024/01/14 01:21:57;;;;;;;2.10;2.00;;;;;;;-1.06;99.98;100339.44;4947550;28;20092;-65
2024/01/14 01:24:23;;;;;;;1.88;1.77;;;;;;;-0.97;100.00;100344.81;4951755;28;20027;-71
2024/01/14 01:26:48;;;;;;;2.20;2.10;;;;;;;-0.86;100.00;100345.03;4946165;29;20035;-71
2024/01/14 01:29:14;;;;;;;2.00;1.90;;;;;;;-0.79;100.00;100345.16;4930358;29;20395;-70
2024/01/14 01:31:39;;;;;;;2.20;2.10;;;;;;;-0.78;100.00;100339.09;4934924;28;20075;-70
2024/01/14 01:34:04;;;;;;;2.10;2.00;;;;;;;-0.85;99.71;100337.22;4946472;29;20075;-71
2024/01/14 01:36:30;;;;;;;2.10;2.00;;;;;;;-0.91;99.27;100336.22;4949477;29;20054;-71
2024/01/14 01:38:55;;;;;;;2.10;2.00;;;;;;;-0.96;99.34;100333.53;4950076;29;20027;-70
2024/01/14 01:41:22;;;;;;;2.20;2.10;;;;;;;-1.16;100.00;100293.16;4949770;29;20099;-69
2024/01/14 01:43:47;;;;;;;2.10;2.00;;;;;;;-1.37;99.34;100249.25;4931188;29;20050;-71
2024/01/14 01:46:13;;;;;;;2.10;2.00;;;;;;;-0.87;99.92;100312.81;4931343;29;20035;-71
2024/01/14 01:48:38;;;;;;;2.08;1.98;;;;;;;-0.95;99.05;100313.50;4934093;29;20027;-71
2024/01/14 01:51:05;;;;;;;2.05;1.95;;;;;;;-1.15;99.47;100268.78;4932392;29;20027;-72
2024/01/14 01:53:30;;;;;;;2.10;2.00;;;;;;;-1.16;99.39;100277.50;4932538;29;20047;-68
2024/01/14 01:55:56;;;;;;;2.10;2.00;;;;;;;-0.89;99.21;100314.50;4931519;29;20403;-71
2024/01/14 01:58:21;;;;;;;2.20;2.10;;;;;;;-0.76;99.02;100308.66;4934693;28;20127;-71
2024/01/14 02:00:49;;;;;;;2.10;2.00;;;;;;;-0.82;98.19;100291.97;4967252;28;20026;-71
2024/01/14 02:03:15;;;;;;;2.00;1.90;;;;;;;-0.88;98.13;100295.41;4958454;28;20033;-70
2024/01/14 02:05:44;;;;;;;2.00;1.90;;;;;;;-0.87;98.22;100291.91;4949880;29;20035;-70
2024/01/14 02:08:10;;;;;;;2.10;2.00;;;;;;;-0.88;97.90;100286.66;4933423;29;20043;-72
2024/01/14 02:10:36;;;;;;;2.10;2.00;;;;;;;-0.99;98.48;100278.69;4944967;28;20472;-71
2024/01/14 02:13:03;;;;;;;1.95;1.85;;;;;;;-0.92;98.07;100290.09;4948903;28;20035;-71
2024/01/14 02:15:29;;;;;;;2.10;2.00;;;;;;;-0.91;98.45;100284.00;4938532;29;20077;-71
2024/01/14 02:17:54;;;;;;;2.20;2.10;;;;;;;-0.95;98.66;100277.84;4932551;29;20748;-70
2024/01/14 02:20:19;;;;;;;2.10;2.00;;;;;;;-0.89;98.30;100290.16;4951468;28;20033;-70
2024/01/14 02:22:48;;;;;;;2.10;2.00;;;;;;;-0.92;98.22;100275.28;4932572;29;20134;-70
2024/01/14 02:25:14;;;;;;;2.10;2.00;;;;;;;-0.86;98.57;100284.97;4927168;29;20039;-70
2024/01/14 02:27:40;;;;;;;2.10;2.00;;;;;;;-1.19;97.48;100251.34;4929413;29;20028;-70
2024/01/14 02:30:09;;;;;;;2.10;2.00;;;;;;;-1.00;97.99;100287.34;4932753;29;20106;-71
2024/01/14 02:32:38;;;;;;;2.30;2.20;;;;;;;-1.09;97.99;100281.97;4927933;28;20076;-70
2024/01/14 02:35:06;;;;;;;2.20;2.10;;;;;;;-1.12;97.86;100283.66;4964889;28;20030;-65
2024/01/14 02:37:37;;;;;;;2.10;2.00;;;;;;;-1.08;98.95;100291.56;4932340;29;20031;-66
2024/01/14 02:40:03;;;;;;;2.22;2.13;;;;;;;-1.02;98.26;100280.34;4929998;29;20567;-65
2024/01/14 02:42:29;;;;;;;2.10;2.00;;;;;;;-1.02;98.42;100293.41;4935451;29;20399;-65
2024/01/14 02:44:55;;;;;;;2.00;1.90;;;;;;;-1.09;98.67;100286.31;4963831;28;20443;-65
2024/01/14 02:47:20;;;;;;;2.10;2.00;;;;;;;-1.06;98.97;100288.97;4966001;28;20058;-65
2024/01/14 02:49:46;;;;;;;2.20;2.10;;;;;;;-1.10;98.51;100274.97;4933620;29;20084;-65
2024/01/14 02:52:12;;;;;;;2.10;2.00;;;;;;;-1.09;98.33;100278.47;4931520;29;20038;-65
2024/01/14 02:54:37;;;;;;;2.20;2.10;;;;;;;-1.06;98.22;100286.34;4930974;29;20440;-65
2024/01/14 02:57:03;;;;;;;2.20;2.10;;;;;;;-1.35;98.39;100238.84;4941835;28;20865;-65
2024/01/14 02:59:32;;;;;;;2.10;2.00;;;;;;;-1.03;98.83;100287.28;4950341;29;20027;-65
2024/01/14 03:01:57;;;;;;;2.10;2.00;;;;;;;-1.00;98.80;100278.63;4950424;29;20134;-65
2024/01/14 03:04:23;;;;;;;2.10;2.00;;;;;;;-0.99;98.95;100276.06;4932863;29;20474;-65
2024/01/14 03:06:48;;;;;;;2.20;2.10;;;;;;;-1.28;98.81;100243.34;4925622;29;20031;-64
2024/01/14 03:09:14;;;;;;;2.30;2.20;;;;;;;-1.06;98.87;100273.31;4961365;28;20051;-65
2024/01/14 03:11:39;;;;;;;2.10;2.00;;;;;;;-1.08;99.52;100272.38;4969092;28;20023;-65
2024/01/14 03:14:05;;;;;;;2.10;2.00;;;;;;;-1.08;98.87;100268.06;4969212;28;20522;-65
2024/01/14 03:16:30;;;;;;;2.10;2.00;;;;;;;-1.26;99.35;100239.03;4939484;28;20039;-65
2024/01/14 03:18:56;;;;;;;2.13;2.03;;;;;;;-1.01;99.69;100261.22;4930292;29;20532;-65
2024/01/14 03:21:21;;;;;;;2.10;2.00;;;;;;;-0.92;100.00;100262.25;4913056;29;20127;-65
2024/01/14 03:23:48;;;;;;;1.95;1.85;;;;;;;-1.18;99.46;100221.78;4929022;29;20035;-65
2024/01/14 03:26:14;;;;;;;1.90;1.80;;;;;;;-0.91;99.09;100258.78;4943518;29;20114;-65
2024/01/14 03:28:39;;;;;;;2.10;2.00;;;;;;;-0.90;98.97;100257.94;4949470;28;20106;-65
2024/01/14 03:31:05;;;;;;;1.92;1.83;;;;;;;-0.95;99.51;100256.09;4953867;28;20492;-65
2024/01/14 03:33:30;;;;;;;1.92;1.83;;;;;;;-1.18;99.34;100210.44;4929898;29;20039;-65
2024/01/14 03:35:56;;;;;;;2.00;1.90;;;;;;;-0.96;99.51;100255.22;4930221;29;20040;-65
2024/01/14 03:38:21;;;;;;;2.00;1.90;;;;;;;-1.00;99.20;100253.41;4932233;29;20470;-65
2024/01/14 03:40:47;;;;;;;2.00;1.90;;;;;;;-1.01;99.52;100246.44;4931845;29;20062;-66
2024/01/14 03:43:12;;;;;;;1.98;1.88;;;;;;;-1.30;99.19;100185.03;4949248;29;20542;-66
2024/01/14 03:45:37;;;;;;;2.10;2.00;;;;;;;-0.97;99.46;100242.16;4947800;29;20587;-70
2024/01/14 03:48:03;;;;;;;2.00;1.90;;;;;;;-1.49;99.95;100167.31;4931830;29;20035;-71
2024/01/14 03:50:29;;;;;;;2.20;2.10;;;;;;;-1.01;99.66;100238.59;4939650;28;20025;-71
2024/01/14 03:52:54;;;;;;;2.10;2.00;;;;;;;-1.00;99.72;100237.75;4945292;29;20031;-70
2024/01/14 03:55:20;;;;;;;2.00;1.90;;;;;;;-1.53;99.68;100165.50;4951792;28;20463;-71
2024/01/14 03:57:45;;;;;;;2.13;2.03;;;;;;;-1.05;99.84;100244.63;4961439;28;20059;-71
2024/01/14 04:00:12;;;;;;;2.10;2.00;;;;;;;-1.09;100.00;100245.44;4975096;28;20398;-70
2024/01/14 04:02:38;;;;;;;2.22;2.13;;;;;;;-1.04;99.72;100259.44;4965675;28;20070;-71
2024/01/14 04:05:03;;;;;;;2.20;2.10;;;;;;;-1.01;99.86;100251.66;4969426;28;20149;-70
2024/01/14 04:07:29;;;;;;;2.00;1.90;;;;;;;-1.04;99.93;100251.63;4968679;28;20027;-70
2024/01/14 04:09:54;;;;;;;2.00;1.90;;;;;;;-1.00;100.00;100258.63;4968150;28;20027;-70
2024/01/14 04:12:20;;;;;;;1.92;1.83;;;;;;;-1.01;99.80;100256.88;4969246;28;20031;-70
2024/01/14 04:14:45;;;;;;;2.00;1.90;;;;;;;-0.97;99.95;100261.28;4950457;28;20407;-71
2024/01/14 04:17:11;;;;;;;1.70;1.70;;;;;;;-1.21;99.20;100207.78;4950394;28;20122;-69
2024/01/14 04:19:37;;;;;;;2.10;2.00;;;;;;;-0.91;99.30;100260.53;4964738;28;20090;-69
2024/01/14 04:22:03;;;;;;;2.10;2.00;;;;;;;-1.08;99.62;100230.63;4982422;28;20030;-70
2024/01/14 04:24:29;;;;;;;2.20;2.10;;;;;;;-0.96;99.67;100270.88;4990122;28;20029;-69
2024/01/14 04:26:54;;;;;;;2.00;1.90;;;;;;;-1.15;99.45;100232.25;4971212;28;20026;-70
2024/01/14 04:29:20;;;;;;;2.10;2.00;;;;;;;-0.99;99.84;100270.84;4963141;28;20118;-70
2024/01/14 04:31:45;;;;;;;1.98;1.88;;;;;;;-1.00;99.57;100274.28;4971815;28;20497;-70
2024/01/14 04:34:11;;;;;;;2.10;2.00;;;;;;;-1.04;98.56;100276.81;4990351;28;20078;-70
2024/01/14 04:36:36;;;;;;;2.08;1.98;;;;;;;-1.21;98.80;100247.81;4971956;28;20086;-69
2024/01/14 04:39:02;;;;;;;2.00;1.90;;;;;;;-1.00;98.46;100276.91;4971949;28;20022;-69
2024/01/14 04:41:27;;;;;;;2.10;2.00;;;;;;;-1.16;98.42;100272.25;4963275;28;20035;-70
2024/01/14 04:43:52;;;;;;;1.90;1.80;;;;;;;-1.10;98.66;100271.50;4952595;29;20142;-70
2024/01/14 04:46:19;;;;;;;2.25;2.15;;;;;;;-1.08;98.67;100257.63;4952199;29;20042;-70
2024/01/14 04:48:44;;;;;;;2.10;2.00;;;;;;;-1.08;98.13;100262.84;4952441;29;20031;-70
2024/01/14 04:51:10;;;;;;;2.00;1.90;;;;;;;-1.32;97.58;100216.31;4963468;28;20502;-70
2024/01/14 04:53:35;;;;;;;2.20;2.10;;;;;;;-1.15;98.03;100268.78;4954246;28;20122;-71
2024/01/14 04:56:05;;;;;;;2.10;2.00;;;;;;;-1.16;98.38;100261.81;4968131;28;20038;-68
2024/01/14 04:58:31;;;;;;;2.10;2.00;;;;;;;-1.10;98.43;100254.09;4953956;28;20063;-68
2024/01/14 05:00:56;;;;;;;2.10;2.00;;;;;;;-1.09;98.25;100245.44;4971494;28;20501;-69
2024/01/14 05:03:22;;;;;;;2.20;2.10;;;;;;;-1.37;98.04;100206.66;4971779;28;20074;-69
2024/01/14 05:05:47;;;;;;;1.92;1.83;;;;;;;-1.35;98.14;100199.72;4968681;28;20046;-69
2024/01/14 05:08:14;;;;;;;2.20;2.10;;;;;;;-1.07;97.72;100243.72;4982751;28;20503;-70
2024/01/14 05:10:39;;;;;;;2.00;1.90;;;;;;;-1.09;97.68;100242.81;4974569;28;20034;-69
2024/01/14 05:13:05;;;;;;;2.20;2.10;;;;;;;-1.15;98.14;100247.06;4951433;29;20027;-70
2024/01/14 05:15:30;;;;;;;2.20;2.10;;;;;;;-1.25;97.93;100247.75;4950650;29;20771;-70
2024/01/14 05:17:55;;;;;;;2.20;2.10;;;;;;;-1.21;97.92;100244.31;4960863;28;20038;-70
2024/01/14 05:20:21;;;;;;;2.15;2.05;;;;;;;-1.15;97.86;100232.25;4969937;28;20042;-70
2024/01/14 05:22:47;;;;;;;2.10;2.00;;;;;;;-1.25;97.63;100235.56;4969323;28;20543;-72
2024/01/14 05:25:12;;;;;;;2.10;2.00;;;;;;;-1.21;97.94;100236.50;4969797;28;20034;-69
2024/01/14 05:27:38;;;;;;;2.10;2.00;;;;;;;-1.13;97.44;100237.50;4958487;28;20031;-70
2024/01/14 05:30:04;;;;;;;2.00;1.90;;;;;;;-1.06;97.35;100232.44;4953331;28;20442;-70
2024/01/14 05:32:29;;;;;;;2.25;2.15;;;;;;;-1.13;96.97;100240.13;4962575;28;20039;-70
2024/01/14 05:34:55;;;;;;;2.20;2.10;;;;;;;-1.34;97.21;100201.50;4934545;29;20031;-70
2024/01/14 05:37:21;;;;;;;2.20;2.10;;;;;;;-1.29;97.75;100238.09;4968473;28;20027;-69
2024/01/14 05:39:46;;;;;;;2.30;2.20;;;;;;;-1.21;97.87;100236.50;4952230;28;20031;-69
2024/01/14 05:42:11;;;;;;;2.13;2.03;;;;;;;-1.12;97.60;100237.53;4966050;28;20528;-69
2024/01/14 05:44:37;;;;;;;2.20;2.10;;;;;;;-1.43;97.98;100162.19;4959427;28;20042;-70
2024/01/14 05:47:02;;;;;;;2.00;1.90;;;;;;;-1.13;97.33;100225.34;4949718;29;20494;-69
2024/01/14 05:49:28;;;;;;;2.10;2.00;;;;;;;-1.09;97.82;100229.78;4951002;28;20637;-70
2024/01/14 05:51:53;;;;;;;2.10;2.00;;;;;;;-1.15;96.97;100221.81;4932475;29;20513;-70
2024/01/14 05:54:19;;;;;;;2.08;1.98;;;;;;;-1.08;97.48;100225.41;4960480;28;20577;-70
2024/01/14 05:56:45;;;;;;;2.10;2.00;;;;;;;-1.05;97.38;100236.78;4974783;28;20038;-71
2024/01/14 05:59:10;;;;;;;2.03;1.92;;;;;;;-1.10;96.43;100220.16;4989961;28;20823;-70
2024/01/14 06:01:36;;;;;;;2.05;1.95;;;;;;;-1.36;96.32;100180.59;4974357;28;20042;-70
2024/01/14 06:04:02;;;;;;;2.10;2.00;;;;;;;-1.11;96.64;100214.94;4983326;28;20030;-69
2024/01/14 06:06:27;;;;;;;2.00;1.90;;;;;;;-1.10;96.26;100206.28;4986130;28;20478;-70
2024/01/14 06:08:53;;;;;;;2.20;2.10;;;;;;;-1.17;96.11;100212.22;4988950;28;20080;-70
2024/01/14 06:11:18;;;;;;;2.20;2.10;;;;;;;-1.14;96.47;100207.94;4958613;28;20106;-70
2024/01/14 06:13:44;;;;;;;2.10;2.00;;;;;;;-1.15;96.05;100194.88;4949340;29;20476;-70
2024/01/14 06:16:10;;;;;;;2.10;2.00;;;;;;;-1.14;96.09;100196.63;4951477;28;20046;-70
2024/01/14 06:18:36;;;;;;;2.00;1.90;;;;;;;-1.05;96.03;100202.84;4945287;28;20026;-70
2024/01/14 06:21:02;;;;;;;2.05;1.95;;;;;;;-1.20;95.01;100201.75;4985070;28;20026;-69
2024/01/14 06:23:28;;;;;;;2.00;1.90;;;;;;;-1.18;95.84;100200.91;4951396;28;20064;-71
2024/01/14 06:25:54;;;;;;;2.00;1.90;;;;;;;-1.21;95.25;100198.25;4964801;28;20033;-70
2024/01/14 06:28:20;;;;;;;2.05;1.95;;;;;;;-1.21;94.79;100195.63;4963544;28;20027;-70
2024/01/14 06:30:45;;;;;;;2.05;1.95;;;;;;;-1.18;95.18;100190.47;4950870;28;20023;-71
2024/01/14 06:33:11;;;;;;;2.05;1.95;;;;;;;-1.21;95.21;100200.84;4950409;28;20073;-70
2024/01/14 06:35:37;;;;;;;2.20;2.10;;;;;;;-1.24;95.84;100198.19;4934809;29;20058;-70
2024/01/14 06:38:02;;;;;;;2.10;2.00;;;;;;;-1.73;95.81;100099.97;4933225;29;20035;-69
2024/01/14 06:40:28;;;;;;;2.10;2.00;;;;;;;-1.22;95.47;100199.09;4950817;29;20515;-70
2024/01/14 06:42:53;;;;;;;2.20;2.10;;;;;;;-1.58;96.22;100154.09;4951830;28;20094;-70
2024/01/14 06:45:19;;;;;;;2.10;2.00;;;;;;;-1.27;95.89;100192.94;4952325;28;20034;-70
2024/01/14 06:47:44;;;;;;;2.10;2.00;;;;;;;-1.64;96.40;100127.94;4969256;28;20027;-71
2024/01/14 06:50:10;;;;;;;1.95;1.85;;;;;;;-1.23;96.27;100189.50;4955057;28;20127;-70
2024/01/14 06:52:37;;;;;;;2.20;2.10;;;;;;;-1.20;96.54;100191.31;4933014;29;20558;-71
2024/01/14 06:55:04;;;;;;;2.20;2.10;;;;;;;-1.13;96.38;100183.59;4952438;28;20085;-70
2024/01/14 06:57:31;;;;;;;2.30;2.20;;;;;;;-1.10;96.21;100173.19;4949889;29;20098;-71
2024/01/14 06:59:56;;;;;;;2.00;1.90;;;;;;;-1.08;96.35;100163.66;4932407;29;20872;-70
2024/01/14 07:02:21;;;;;;;2.10;2.00;;;;;;;-1.05;95.85;100168.03;4962975;28;20098;-70
2024/01/14 07:04:47;;;;;;;2.15;2.05;;;;;;;-1.16;96.22;100152.22;4967995;28;20066;-69
2024/01/14 07:07:12;;;;;;;2.10;2.00;;;;;;;-1.15;96.01;100153.97;4967887;28;20026;-70
2024/01/14 07:09:37;;;;;;;2.00;1.90;;;;;;;-1.16;96.54;100152.22;4967186;28;20595;-70
2024/01/14 07:12:03;;;;;;;1.90;1.80;;;;;;;-1.40;95.95;100103.13;4948029;28;20141;-70
2024/01/14 07:14:29;;;;;;;2.00;1.90;;;;;;;-1.13;95.89;100146.16;4968179;28;20114;-70
2024/01/14 07:16:54;;;;;;;1.90;1.80;;;;;;;-1.10;95.87;100149.72;4964496;28;20599;-69
2024/01/14 07:19:20;;;;;;;2.30;2.20;;;;;;;-1.20;95.24;100132.16;4967324;28;20033;-70
2024/01/14 07:21:45;;;;;;;2.10;2.00;;;;;;;-1.40;95.79;100097.91;4978598;28;20054;-70
2024/01/14 07:24:10;;;;;;;2.10;2.00;;;;;;;-1.17;96.18;100145.25;4951926;28;20022;-70
2024/01/14 07:26:36;;;;;;;2.10;2.00;;;;;;;-1.07;96.06;100131.47;4969193;28;20034;-70
2024/01/14 07:29:01;;;;;;;2.00;1.90;;;;;;;-1.09;95.69;100138.44;4953214;28;20045;-70
2024/01/14 07:31:28;;;;;;;2.00;1.90;;;;;;;-1.10;95.71;100125.38;4931874;29;20031;-70
2024/01/14 07:33:54;;;;;;;2.20;2.10;;;;;;;-1.04;95.58;100126.34;4932300;29;20038;-70
2024/01/14 07:36:19;;;;;;;2.20;2.10;;;;;;;-0.98;96.36;100120.31;4958539;28;20027;-70
2024/01/14 07:38:45;;;;;;;2.10;2.00;;;;;;;-1.01;95.52;100110.72;4953689;28;20122;-70
2024/01/14 07:41:15;;;;;;;2.10;2.00;;;;;;;-1.04;95.70;100102.84;4952052;28;20035;-69
2024/01/14 07:43:41;;;;;;;2.30;2.20;;;;;;;-0.91;95.53;100094.34;4968623;28;20026;-70
2024/01/14 07:46:07;;;;;;;2.00;1.90;;;;;;;-1.02;95.60;100059.34;4969045;28;20391;-70
2024/01/14 07:48:33;;;;;;;2.20;2.10;;;;;;;-1.41;94.46;100022.25;4939683;29;20039;-71
2024/01/14 07:50:59;;;;;;;2.10;2.00;;;;;;;-1.33;93.92;100054.56;4949568;29;20028;-69
2024/01/14 07:53:24;;;;;;;2.20;2.10;;;;;;;-1.07;93.68;100097.56;4956781;28;20049;-70
2024/01/14 07:55:50;;;;;;;2.10;2.00;;;;;;;-1.07;93.53;100096.69;4954807;28;20137;-69
2024/01/14 07:58:15;;;;;;;2.20;2.10;;;;;;;-1.07;93.37;100089.72;4960059;28;20047;-70
2024/01/14 08:00:42;;;;;;;2.10;2.00;;;;;;;-1.03;92.89;100085.44;4967842;28;20088;-70
2024/01/14 08:03:08;;;;;;;2.00;1.90;;;;;;;-1.00;93.16;100091.59;4973874;28;20026;-70
2024/01/14 08:05:35;;;;;;;2.10;2.00;;;;;;;-1.02;92.89;100076.78;4973506;28;20550;-70
2024/01/14 08:08:01;;;;;;;2.20;2.10;;;;;;;-1.02;92.89;100076.78;4956030;28;20046;-69
2024/01/14 08:10:27;;;;;;;2.00;1.90;;;;;;;-1.01;93.02;100068.97;4958076;28;20022;-70
2024/01/14 08:12:52;;;;;;;2.10;2.00;;;;;;;-0.95;93.46;100070.75;4965378;28;20047;-70
2024/01/14 08:15:18;;;;;;;2.00;1.90;;;;;;;-1.00;92.25;100070.69;4971684;28;20129;-70
2024/01/14 08:17:43;;;;;;;2.20;2.10;;;;;;;-1.25;91.47;100026.84;4955595;28;20430;-69
2024/01/14 08:20:10;;;;;;;2.20;2.10;;;;;;;-0.95;91.72;100074.25;4935406;29;20034;-70
2024/01/14 08:22:37;;;;;;;2.00;1.90;;;;;;;-0.88;92.20;100062.16;4971354;28;20019;-69
2024/01/14 08:25:02;;;;;;;2.00;1.90;;;;;;;-1.26;91.28;100022.50;4965513;28;20499;-69
2024/01/14 08:27:30;;;;;;;2.00;1.90;;;;;;;-1.35;90.30;100019.72;4970686;28;20058;-69
2024/01/14 08:29:55;;;;;;;1.88;1.80;;;;;;;-1.10;90.51;100065.34;4970846;28;20082;-69
2024/01/14 08:32:21;;;;;;;2.30;2.20;;;;;;;-1.14;90.40;100059.19;4970201;28;20030;-67
2024/01/14 08:34:46;;;;;;;2.10;2.00;;;;;;;-1.07;90.54;100063.63;4954461;28;20031;-70
2024/01/14 08:37:12;;;;;;;2.00;1.90;;;;;;;-1.11;90.71;100061.84;4968428;28;20037;-70
2024/01/14 08:39:37;;;;;;;2.10;2.00;;;;;;;-1.12;91.82;100051.41;4968855;28;20676;-70
2024/01/14 08:42:03;;;;;;;2.30;2.20;;;;;;;-1.25;91.72;100021.63;4954610;28;20035;-70
2024/01/14 08:44:28;;;;;;;2.40;2.30;;;;;;;-0.99;91.46;100061.16;4952629;29;20034;-70
2024/01/14 08:46:54;;;;;;;2.15;2.05;;;;;;;-1.09;91.36;100059.25;4965466;28;20037;-70
2024/01/14 08:49:20;;;;;;;2.20;2.10;;;;;;;-1.01;92.33;100058.50;4971683;28;20530;-69
2024/01/14 08:51:45;;;;;;;2.25;2.15;;;;;;;-1.38;92.34;99998.81;4945915;29;20115;-70
2024/01/14 08:54:11;;;;;;;2.00;1.90;;;;;;;-1.18;92.18;100017.38;4952394;29;20031;-70
2024/01/14 08:56:36;;;;;;;2.20;2.10;;;;;;;-0.88;92.28;100044.78;4964571;28;20055;-70
2024/01/14 08:59:02;;;;;;;2.10;2.00;;;;;;;-0.96;92.84;100046.41;4951062;28;20031;-71
2024/01/14 09:01:27;;;;;;;2.17;2.08;;;;;;;-1.00;93.02;100049.81;4953099;28;20039;-68
2024/01/14 09:03:53;;;;;;;2.10;2.00;;;;;;;-1.11;92.90;100025.31;4950524;28;20043;-70
2024/01/14 09:06:18;;;;;;;2.20;2.10;;;;;;;-0.90;93.64;100049.09;4949625;28;20031;-70
2024/01/14 09:08:44;;;;;;;2.20;2.10;;;;;;;-1.13;93.60;99995.72;4952031;28;20615;-69
2024/01/14 09:11:09;;;;;;;2.10;2.00;;;;;;;-1.00;94.01;100008.06;4950270;29;20034;-70
2024/01/14 09:13:35;;;;;;;2.38;2.28;;;;;;;-0.72;94.02;100041.50;4952251;28;20031;-69
2024/01/14 09:16:01;;;;;;;2.10;2.00;;;;;;;-1.01;93.54;100010.66;4958450;28;20026;-68
2024/01/14 09:18:26;;;;;;;2.10;2.00;;;;;;;-0.76;93.74;100042.34;4967678;28;20042;-69
2024/01/14 09:20:52;;;;;;;2.10;2.00;;;;;;;-0.84;93.87;100030.88;4964513;28;20026;-77
2024/01/14 09:23:18;;;;;;;2.10;2.00;;;;;;;-0.92;94.14;100052.56;4972509;28;20062;-77
2024/01/14 09:25:44;;;;;;;2.10;2.00;;;;;;;-0.83;95.20;100037.88;4960465;28;20039;-75
2024/01/14 09:28:09;;;;;;;2.00;1.90;;;;;;;-1.07;94.92;99995.78;4951312;29;20039;-75
2024/01/14 09:30:35;;;;;;;2.10;2.00;;;;;;;-0.83;95.48;100032.66;4953690;28;20108;-75
2024/01/14 09:33:00;;;;;;;2.30;2.20;;;;;;;-1.02;95.09;99990.63;4970874;28;20088;-68
2024/01/14 09:35:26;;;;;;;2.20;2.10;;;;;;;-0.72;94.78;100020.59;4969491;28;20030;-74
2024/01/14 09:37:51;;;;;;;2.10;2.00;;;;;;;-1.31;93.43;99948.50;4970466;28;20125;-76
2024/01/14 09:40:17;;;;;;;2.10;2.00;;;;;;;-0.78;93.59;100024.88;4967230;28;20081;-75
2024/01/14 09:42:46;;;;;;;2.30;2.20;;;;;;;-0.74;93.62;100017.09;4971047;28;20027;-73
2024/01/14 09:45:13;;;;;;;2.10;2.00;;;;;;;-0.80;93.30;100006.59;4961061;28;20498;-72
2024/01/14 09:47:40;;;;;;;2.20;2.10;;;;;;;-0.75;92.95;100020.56;4954823;28;20113;-74
2024/01/14 09:50:07;;;;;;;2.20;2.10;;;;;;;-0.62;93.24;100018.97;4988521;28;20113;-71
2024/01/14 09:52:34;;;;;;;2.10;2.00;;;;;;;-0.97;92.12;99982.00;4981387;28;20075;-72
2024/01/14 09:55:00;;;;;;;2.20;2.10;;;;;;;-0.93;92.06;100016.84;4982857;28;20435;-73
2024/01/14 09:57:28;;;;;;;2.20;2.10;;;;;;;-0.82;92.48;100017.84;4941900;29;20055;-73
2024/01/14 09:59:55;;;;;;;2.10;2.00;;;;;;;-0.78;92.24;100015.31;4950344;29;20034;-72
2024/01/14 10:02:21;;;;;;;1.98;1.88;;;;;;;-0.76;92.75;100013.59;4950793;28;20053;-74
2024/01/14 10:04:48;;;;;;;2.03;1.92;;;;;;;-0.77;93.09;100001.41;4969559;28;20030;-73
2024/01/14 10:07:14;;;;;;;2.03;1.92;;;;;;;-0.72;93.09;100002.31;4984953;28;20403;-73
2024/01/14 10:09:41;;;;;;;2.13;2.03;;;;;;;-0.62;92.13;99996.34;4978044;28;20042;-75
2024/01/14 10:12:10;;;;;;;2.00;1.90;;;;;;;-0.69;92.15;99999.75;4972724;28;20034;-75
2024/01/14 10:14:36;;;;;;;2.30;2.20;;;;;;;-0.69;92.25;99998.88;4970093;28;20062;-75
2024/01/14 10:17:02;;;;;;;2.00;1.90;;;;;;;-0.61;92.95;100003.31;4969259;28;20034;-74
2024/01/14 10:19:29;;;;;;;2.05;1.95;;;;;;;-0.74;92.64;99964.88;4966845;28;20033;-74
2024/01/14 10:21:55;;;;;;;2.10;2.00;;;;;;;-0.50;92.35;99991.28;4969534;28;20834;-76
2024/01/14 10:24:22;;;;;;;1.90;1.80;;;;;;;-0.45;92.38;100001.75;4969011;28;20026;-76
2024/01/14 10:26:54;;;;;;;2.00;1.90;;;;;;;-0.44;93.15;99991.34;4967145;28;20486;-75
2024/01/14 10:29:19;;;;;;;1.90;1.80;;;;;;;-0.44;92.72;99986.09;4969969;28;20066;-76
2024/01/14 10:31:46;;;;;;;2.00;1.90;;;;;;;-0.38;93.61;99986.16;4966780;28;20046;-76
2024/01/14 10:34:11;;;;;;;2.00;1.90;;;;;;;-0.52;92.82;99943.34;4970273;28;20394;-75
2024/01/14 10:36:38;;;;;;;2.20;2.10;;;;;;;-0.22;92.48;99975.03;4956136;28;20031;-77
2024/01/14 10:39:07;;;;;;;1.95;1.85;;;;;;;-0.15;92.09;99968.97;4950129;29;20035;-76
2024/01/14 10:41:33;;;;;;;2.20;2.10;;;;;;;-0.11;92.00;99977.72;4957281;28;20030;-74
2024/01/14 10:43:59;;;;;;;1.77;1.75;;;;;;;-0.21;90.84;99958.47;4968407;28;20045;-73
2024/01/14 10:46:24;;;;;;;2.00;1.90;;;;;;;-0.37;91.29;99904.31;4968958;28;20045;-76
2024/01/14 10:48:57;;;;;;;2.10;2.00;;;;;;;-0.06;90.09;99952.50;4967718;28;20742;-76
2024/01/14 10:51:25;;;;;;;2.05;1.95;;;;;;;-0.12;90.34;99901.06;4956064;28;20063;-74
2024/01/14 10:54:09;;;;;;;2.10;2.00;;;;;;;0.06;89.06;99946.50;4966412;28;20034;-76
2024/01/14 10:56:39;;;;;;;1.90;1.80;;;;;;;0.11;89.22;99939.56;4967193;28;20562;-75
2024/01/14 10:59:08;;;;;;;1.73;1.73;;;;;;;-0.01;87.97;99888.94;4965422;28;20724;-76
2024/01/14 11:01:40;;;;;;;1.70;1.70;;;;;;;0.25;87.56;99928.34;4950409;28;20033;-74
2024/01/14 11:04:07;;;;;;;1.80;1.80;;;;;;;0.20;86.41;99918.72;4968056;28;20058;-75
2024/01/14 11:06:34;;;;;;;1.80;1.80;;;;;;;0.25;86.88;99917.03;4945447;28;20034;-75
2024/01/14 11:09:00;;;;;;;1.90;1.80;;;;;;;0.08;85.24;99908.16;4948541;28;20046;-74
2024/01/14 11:11:49;;;;;;;1.70;1.70;;;;;;;-0.01;86.95;99911.59;4960468;28;20023;-75
2024/01/14 11:14:21;;;;;;;1.80;1.80;;;;;;;0.08;87.49;99890.75;4968269;28;20066;-73
2024/01/14 11:17:14;;;;;;;2.00;1.90;;;;;;;0.09;86.24;99889.00;4969180;28;20487;-75
2024/01/14 11:19:42;;;;;;;2.00;1.90;;;;;;;0.05;86.82;99892.47;4947440;28;20062;-74
2024/01/14 11:22:22;;;;;;;1.90;1.80;;;;;;;0.11;86.96;99889.88;4969243;28;20047;-76